Time;durP1;ratioP1;P1;durP2;ratioP2;P2;SDS_P1;SDS_P2;PMS_P1;PMS_P2;Temp;Humidity;BMP_temperature;BMP_pressure;BME280_temperature;BME280_humidity;BME280_pressure;Samples;Min_cycle;Max_cycle;Signal;HPM_P1;HPM_P2
2022/03/30 00:00:48;;;;;;;7.70;4.95;;;20.50;41.00;;;;;;4992102;28;20044;-65
2022/03/30 00:03:13;;;;;;;6.95;4.47;;;20.50;41.00;;;;;;4991620;28;20042;-65
2022/03/30 00:05:39;;;;;;;8.32;4.68;;;20.50;41.00;;;;;;4990213;28;20125;-68
2022/03/30 00:08:06;;;;;;;8.75;4.78;;;20.50;41.00;;;;;;4972643;28;20967;-65
2022/03/30 00:10:33;;;;;;;7.13;4.80;;;20.40;40.90;;;;;;4973902;28;20212;-68
2022/03/30 00:12:58;;;;;;;6.75;4.70;;;20.50;41.00;;;;;;4975033;28;20046;-64
2022/03/30 00:15:25;;;;;;;5.70;4.15;;;20.40;40.90;;;;;;4988643;28;20053;-65
2022/03/30 00:17:51;;;;;;;6.20;4.40;;;20.50;41.00;;;;;;4993178;28;20042;-68
2022/03/30 00:20:18;;;;;;;6.78;4.78;;;20.40;40.90;;;;;;4973019;28;20597;-64
2022/03/30 00:22:44;;;;;;;7.15;4.78;;;20.40;40.80;;;;;;4973394;28;20049;-67
2022/03/30 00:25:12;;;;;;;6.40;4.30;;;20.40;40.90;;;;;;4991448;28;20038;-64
2022/03/30 00:27:38;;;;;;;6.57;4.65;;;20.40;40.80;;;;;;4990705;28;20038;-66
2022/03/30 00:30:05;;;;;;;9.10;4.93;;;20.40;40.90;;;;;;4990386;28;20034;-66
2022/03/30 00:32:32;;;;;;;7.32;5.05;;;20.40;40.80;;;;;;4990251;28;20042;-66
2022/03/30 00:34:58;;;;;;;6.70;4.45;;;20.40;40.80;;;;;;4992160;28;20041;-65
2022/03/30 00:37:23;;;;;;;6.32;5.00;;;20.40;40.80;;;;;;4990885;28;20045;-67
2022/03/30 00:39:49;;;;;;;5.70;4.30;;;20.40;40.80;;;;;;4998483;28;20060;-65
2022/03/30 00:42:16;;;;;;;7.28;4.50;;;20.40;40.80;;;;;;5002918;28;20041;-64
2022/03/30 00:44:42;;;;;;;7.80;4.35;;;20.40;40.70;;;;;;5001826;28;20504;-66
2022/03/30 00:47:19;;;;;;;6.57;4.45;;;20.40;40.80;;;;;;5002478;28;20038;-64
2022/03/30 00:49:44;;;;;;;8.65;4.88;;;20.40;40.70;;;;;;4983809;28;20512;-67
2022/03/30 00:52:12;;;;;;;7.57;4.47;;;20.40;40.70;;;;;;5002294;28;20076;-64
2022/03/30 00:54:38;;;;;;;6.57;4.60;;;20.40;40.70;;;;;;4984579;28;20038;-65
2022/03/30 00:57:09;;;;;;;7.53;4.63;;;20.40;40.70;;;;;;5002885;28;20155;-67
2022/03/30 00:59:35;;;;;;;5.75;4.43;;;20.40;40.70;;;;;;5002205;28;20104;-68
2022/03/30 01:02:01;;;;;;;5.50;4.32;;;20.40;40.70;;;;;;4982904;28;20446;-64
2022/03/30 01:04:27;;;;;;;6.43;4.82;;;20.40;40.70;;;;;;5002569;28;20038;-65
2022/03/30 01:06:53;;;;;;;5.60;4.30;;;20.40;40.70;;;;;;5000730;28;20144;-65
2022/03/30 01:09:18;;;;;;;6.70;4.18;;;20.30;40.60;;;;;;5002289;28;20430;-64
2022/03/30 01:11:44;;;;;;;6.18;4.40;;;20.30;40.60;;;;;;5001084;28;20041;-64
2022/03/30 01:14:11;;;;;;;5.65;4.13;;;20.30;40.50;;;;;;5001894;28;20045;-68
2022/03/30 01:16:38;;;;;;;5.90;4.13;;;20.30;40.60;;;;;;5001312;28;20633;-65
2022/03/30 01:19:07;;;;;;;7.32;4.90;;;20.30;40.60;;;;;;5000218;28;20046;-66
2022/03/30 01:21:38;;;;;;;6.32;4.70;;;20.30;40.50;;;;;;5001832;28;20052;-64
2022/03/30 01:24:05;;;;;;;5.25;4.40;;;20.30;40.50;;;;;;5002232;28;20066;-65
2022/03/30 01:26:31;;;;;;;6.75;5.10;;;20.30;40.50;;;;;;5002967;28;20053;-65
2022/03/30 01:28:57;;;;;;;6.97;4.88;;;20.30;40.50;;;;;;5006396;28;20037;-66
2022/03/30 01:34:07;;;;;;;7.28;4.65;;;20.30;40.50;;;;;;4987902;28;20046;-64
2022/03/30 01:36:35;;;;;;;6.03;4.82;;;20.30;40.50;;;;;;5004255;28;20038;-65
2022/03/30 01:39:02;;;;;;;5.40;4.50;;;20.30;40.50;;;;;;5002028;28;20058;-65
2022/03/30 01:41:29;;;;;;;6.72;4.53;;;20.20;40.50;;;;;;4990487;28;20045;-64
2022/03/30 01:43:56;;;;;;;5.70;4.40;;;20.30;40.50;;;;;;4995414;28;20038;-66
2022/03/30 01:46:22;;;;;;;6.88;4.57;;;20.20;40.40;;;;;;4975103;28;20056;-65
2022/03/30 01:48:47;;;;;;;6.07;4.28;;;20.30;40.40;;;;;;4991007;28;20046;-65
2022/03/30 01:51:13;;;;;;;8.32;4.50;;;20.30;40.40;;;;;;4991745;28;20050;-64
2022/03/30 01:53:39;;;;;;;6.68;4.30;;;20.20;40.40;;;;;;4994511;28;20165;-65
2022/03/30 01:56:04;;;;;;;5.45;4.43;;;20.20;40.30;;;;;;4991265;28;20073;-65
2022/03/30 01:58:30;;;;;;;6.82;4.63;;;20.20;40.40;;;;;;4994129;28;20484;-66
2022/03/30 02:00:57;;;;;;;5.20;4.05;;;20.20;40.30;;;;;;4987083;28;20042;-64
2022/03/30 02:03:23;;;;;;;6.00;4.60;;;20.20;40.30;;;;;;4987389;28;20064;-65
2022/03/30 02:05:49;;;;;;;7.10;4.85;;;20.20;40.30;;;;;;4993029;28;20977;-69
2022/03/30 02:08:15;;;;;;;6.82;4.80;;;20.20;40.30;;;;;;4989651;28;20057;-65
2022/03/30 02:10:40;;;;;;;7.53;4.78;;;20.20;40.30;;;;;;4992432;28;20136;-64
2022/03/30 02:13:06;;;;;;;5.90;4.57;;;20.20;40.30;;;;;;4974355;28;20058;-65
2022/03/30 02:15:32;;;;;;;5.75;4.43;;;20.20;40.30;;;;;;4992453;28;20153;-66
2022/03/30 02:17:59;;;;;;;6.05;4.90;;;20.20;40.30;;;;;;4993716;28;20145;-65
2022/03/30 02:20:25;;;;;;;6.38;4.65;;;20.20;40.30;;;;;;4991832;28;20120;-66
2022/03/30 02:22:51;;;;;;;6.70;4.45;;;20.20;40.30;;;;;;4994270;28;20089;-66
2022/03/30 02:25:17;;;;;;;5.63;4.68;;;20.10;40.20;;;;;;4992594;28;20065;-65
2022/03/30 02:27:43;;;;;;;7.15;4.65;;;20.20;40.20;;;;;;4991862;28;20493;-65
2022/03/30 02:30:09;;;;;;;6.70;5.03;;;20.20;40.20;;;;;;4991828;28;20054;-66
2022/03/30 02:32:36;;;;;;;6.60;4.90;;;20.20;40.20;;;;;;4975041;28;20429;-64
2022/03/30 02:35:03;;;;;;;6.22;4.70;;;20.20;40.20;;;;;;4993587;28;20045;-66
2022/03/30 02:37:29;;;;;;;5.80;4.57;;;20.20;40.20;;;;;;4991907;28;20042;-64
2022/03/30 02:39:54;;;;;;;5.43;4.45;;;20.20;40.30;;;;;;5003862;28;20084;-68
2022/03/30 02:42:20;;;;;;;7.28;4.78;;;20.10;40.20;;;;;;5002962;28;20041;-65
2022/03/30 02:44:46;;;;;;;5.82;4.68;;;20.10;40.10;;;;;;5005362;28;20049;-65
2022/03/30 02:47:11;;;;;;;5.28;4.75;;;20.20;40.20;;;;;;5003033;28;20050;-65
2022/03/30 02:49:38;;;;;;;6.30;4.13;;;20.20;40.20;;;;;;5005084;28;20183;-66
2022/03/30 02:52:04;;;;;;;6.22;4.80;;;20.10;40.20;;;;;;4987083;28;20442;-65
2022/03/30 02:54:30;;;;;;;6.10;4.32;;;20.10;40.10;;;;;;5004380;28;20044;-65
2022/03/30 02:56:57;;;;;;;7.10;5.03;;;20.10;40.20;;;;;;5005611;28;20046;-67
2022/03/30 02:59:22;;;;;;;7.35;4.70;;;20.10;40.10;;;;;;5001603;28;20046;-65
2022/03/30 03:01:48;;;;;;;7.80;4.90;;;20.10;40.10;;;;;;5005789;28;20406;-64
2022/03/30 03:04:14;;;;;;;6.93;5.10;;;20.10;40.10;;;;;;5003417;28;20484;-65
2022/03/30 03:06:40;;;;;;;8.15;5.10;;;20.10;40.10;;;;;;5005385;28;20046;-65
2022/03/30 03:09:08;;;;;;;6.20;4.78;;;20.10;40.10;;;;;;5003909;28;20057;-65
2022/03/30 03:11:34;;;;;;;7.28;4.55;;;20.10;40.10;;;;;;5005126;28;20079;-64
2022/03/30 03:14:05;;;;;;;7.65;4.93;;;20.10;40.10;;;;;;5003936;28;20213;-67
2022/03/30 03:16:30;;;;;;;;;;;20.10;40.10;;;;;;5002625;28;20061;-66
2022/03/30 03:18:56;;;;;;;10.32;5.15;;;20.10;40.00;;;;;;5004603;28;19925;-65
2022/03/30 03:21:22;;;;;;;5.68;4.60;;;20.00;40.20;;;;;;5004082;28;20045;-67
2022/03/30 03:23:48;;;;;;;6.82;4.90;;;20.00;40.20;;;;;;5003856;28;20482;-66
2022/03/30 03:26:14;;;;;;;6.47;4.78;;;20.00;40.20;;;;;;5003891;28;20133;-65
2022/03/30 03:28:40;;;;;;;7.20;5.03;;;20.10;40.20;;;;;;5003970;28;20061;-65
2022/03/30 03:31:05;;;;;;;7.00;5.07;;;20.00;40.10;;;;;;5002690;28;20145;-66
2022/03/30 03:33:32;;;;;;;7.18;4.90;;;20.00;40.10;;;;;;4985618;28;20417;-66
2022/03/30 03:35:58;;;;;;;7.55;5.10;;;20.00;40.10;;;;;;4994245;28;20137;-65
2022/03/30 03:38:24;;;;;;;6.63;4.85;;;20.00;40.00;;;;;;5002722;28;21053;-66
2022/03/30 03:40:50;;;;;;;7.47;4.82;;;20.00;40.10;;;;;;4991095;28;20498;-67
2022/03/30 03:43:16;;;;;;;6.45;4.53;;;20.00;40.10;;;;;;4991343;28;20045;-65
2022/03/30 03:45:41;;;;;;;6.35;4.60;;;20.00;40.10;;;;;;4992742;28;20676;-65
2022/03/30 03:48:07;;;;;;;6.32;4.70;;;20.00;40.00;;;;;;4990940;28;20042;-65
2022/03/30 03:50:33;;;;;;;7.03;4.90;;;20.00;40.00;;;;;;4988135;28;20563;-65
2022/03/30 03:52:59;;;;;;;6.95;5.60;;;20.00;40.10;;;;;;4975024;28;20109;-64
2022/03/30 03:55:24;;;;;;;6.80;5.10;;;20.00;40.10;;;;;;4989358;28;20919;-65
2022/03/30 03:57:50;;;;;;;5.55;4.85;;;20.00;40.10;;;;;;4985942;28;20129;-65
2022/03/30 04:00:17;;;;;;;6.90;4.63;;;20.00;40.10;;;;;;4989464;28;20133;-66
2022/03/30 04:02:43;;;;;;;6.65;5.22;;;20.00;40.10;;;;;;4986218;28;20522;-67
2022/03/30 04:05:10;;;;;;;6.85;4.90;;;20.00;40.10;;;;;;4970112;28;20048;-65
2022/03/30 04:07:37;;;;;;;6.60;4.78;;;20.00;40.10;;;;;;4992653;28;20034;-64
2022/03/30 04:10:04;;;;;;;9.10;4.97;;;20.00;40.10;;;;;;4973783;28;20074;-66
2022/03/30 04:12:29;;;;;;;7.03;4.97;;;20.00;40.10;;;;;;4992104;28;20045;-65
2022/03/30 04:14:55;;;;;;;5.78;5.13;;;20.00;40.10;;;;;;4991045;28;20037;-64
2022/03/30 04:17:21;;;;;;;7.05;4.95;;;20.00;40.10;;;;;;4989811;28;20043;-65
2022/03/30 04:19:46;;;;;;;7.28;5.00;;;20.00;40.10;;;;;;4984839;28;20042;-65
2022/03/30 04:22:12;;;;;;;7.97;4.80;;;19.90;40.00;;;;;;4987272;28;20517;-64
2022/03/30 04:24:37;;;;;;;5.97;4.95;;;19.90;40.00;;;;;;4988444;28;20372;-64
2022/03/30 04:27:04;;;;;;;6.53;4.57;;;20.00;40.10;;;;;;4974867;28;20046;-64
2022/03/30 04:29:29;;;;;;;6.55;4.88;;;19.90;40.00;;;;;;4973777;28;20041;-66
2022/03/30 04:31:55;;;;;;;6.70;5.15;;;19.90;40.00;;;;;;4975898;28;20407;-61
2022/03/30 04:34:20;;;;;;;4.85;4.05;;;19.90;40.00;;;;;;4990305;28;20468;-65
2022/03/30 04:36:46;;;;;;;6.70;5.10;;;19.90;40.10;;;;;;4988567;28;20149;-67
2022/03/30 04:39:12;;;;;;;9.15;5.40;;;19.90;40.10;;;;;;4986482;28;20511;-66
2022/03/30 04:41:37;;;;;;;7.15;4.82;;;20.00;40.20;;;;;;4987490;28;20050;-67
2022/03/30 04:44:03;;;;;;;6.00;4.60;;;20.00;40.20;;;;;;4972937;28;20046;-65
2022/03/30 04:46:28;;;;;;;4.95;4.22;;;19.90;40.20;;;;;;4972456;28;20045;-60
2022/03/30 04:48:54;;;;;;;6.85;4.45;;;20.00;40.20;;;;;;4991185;28;20046;-66
2022/03/30 04:51:19;;;;;;;6.22;4.72;;;19.90;40.20;;;;;;4991303;28;20056;-64
2022/03/30 04:53:45;;;;;;;7.07;4.65;;;19.90;40.20;;;;;;4977322;28;20738;-67
2022/03/30 04:56:10;;;;;;;6.50;4.72;;;20.00;40.40;;;;;;4977034;28;20049;-64
2022/03/30 04:58:36;;;;;;;5.63;4.78;;;20.00;40.60;;;;;;4975466;28;20053;-68
2022/03/30 05:01:02;;;;;;;5.25;4.43;;;19.90;40.60;;;;;;4976009;28;20053;-66
2022/03/30 05:03:27;;;;;;;7.65;4.35;;;20.00;40.70;;;;;;4965171;28;20088;-66
2022/03/30 05:05:53;;;;;;;6.18;4.47;;;20.00;40.70;;;;;;4996070;28;20040;-65
2022/03/30 05:08:18;;;;;;;7.90;4.75;;;20.00;40.80;;;;;;4981217;28;20486;-65
2022/03/30 05:10:46;;;;;;;7.22;4.18;;;20.00;40.80;;;;;;4978770;28;20042;-66
2022/03/30 05:13:12;;;;;;;7.55;4.60;;;20.00;40.80;;;;;;4979520;28;20077;-65
2022/03/30 05:15:38;;;;;;;8.02;4.90;;;20.00;40.80;;;;;;4998274;28;20129;-67
2022/03/30 05:18:04;;;;;;;5.90;4.57;;;20.00;40.90;;;;;;4995313;28;20493;-66
2022/03/30 05:20:29;;;;;;;6.95;4.93;;;20.00;40.80;;;;;;4998994;28;20041;-66
2022/03/30 05:22:55;;;;;;;5.57;3.97;;;20.00;40.90;;;;;;4978931;28;20521;-64
2022/03/30 05:25:21;;;;;;;8.95;4.32;;;20.00;40.90;;;;;;4998294;28;20046;-66
2022/03/30 05:27:46;;;;;;;6.80;3.92;;;20.00;40.90;;;;;;4979737;28;20125;-68
2022/03/30 05:30:13;;;;;;;5.65;3.72;;;20.00;40.90;;;;;;4995537;28;20042;-65
2022/03/30 05:32:40;;;;;;;6.05;4.20;;;20.00;40.90;;;;;;4967556;28;20661;-66
2022/03/30 05:35:06;;;;;;;4.78;3.83;;;20.00;40.90;;;;;;4997481;28;20034;-65
2022/03/30 05:37:32;;;;;;;4.35;3.65;;;20.00;40.90;;;;;;4976267;28;20037;-65
2022/03/30 05:39:58;;;;;;;6.68;4.10;;;20.00;40.80;;;;;;5000840;28;20129;-65
2022/03/30 05:42:24;;;;;;;5.55;3.55;;;20.00;40.80;;;;;;5007390;28;20133;-65
2022/03/30 05:44:52;;;;;;;4.20;3.63;;;20.00;40.80;;;;;;5023956;28;20091;-65
2022/03/30 05:47:18;;;;;;;6.47;3.67;;;20.00;40.80;;;;;;5023186;28;20128;-67
2022/03/30 05:49:44;;;;;;;5.75;4.20;;;20.00;40.80;;;;;;4991724;28;20133;-65
2022/03/30 05:52:10;;;;;;;4.90;3.45;;;20.00;40.80;;;;;;5023882;28;20057;-66
2022/03/30 05:54:36;;;;;;;5.57;3.95;;;20.00;40.80;;;;;;5005419;28;20048;-65
2022/03/30 05:57:03;;;;;;;8.88;4.38;;;20.00;40.80;;;;;;5007735;28;20041;-65
2022/03/30 05:59:40;;;;;;;4.72;3.63;;;20.10;40.80;;;;;;5007575;28;20254;-69
2022/03/30 06:02:08;;;;;;;5.57;3.60;;;20.10;40.90;;;;;;4990950;28;20117;-65
2022/03/30 06:04:34;;;;;;;6.03;3.97;;;20.10;40.90;;;;;;5024187;28;20093;-67
2022/03/30 06:07:00;;;;;;;4.93;3.40;;;20.10;40.90;;;;;;5023760;28;20037;-65
2022/03/30 06:09:27;;;;;;;4.28;3.50;;;20.10;40.80;;;;;;5005559;28;20092;-65
2022/03/30 06:11:53;;;;;;;5.22;3.85;;;20.10;40.90;;;;;;4990828;28;20065;-65
2022/03/30 06:14:20;;;;;;;6.00;3.78;;;20.10;40.90;;;;;;5023786;28;20053;-65
2022/03/30 06:16:45;;;;;;;4.60;3.38;;;20.10;40.90;;;;;;5005492;28;20461;-66
2022/03/30 06:19:12;;;;;;;3.70;3.10;;;20.10;40.90;;;;;;5023196;28;20050;-66
2022/03/30 06:21:39;;;;;;;4.32;3.28;;;20.10;40.90;;;;;;5015195;28;20038;-65
2022/03/30 06:24:05;;;;;;;5.15;3.15;;;20.10;40.90;;;;;;5006077;28;20033;-65
2022/03/30 06:26:30;;;;;;;5.57;3.17;;;20.10;40.90;;;;;;5023331;28;20049;-65
2022/03/30 06:28:56;;;;;;;3.58;2.63;;;20.20;41.00;;;;;;5007194;28;20045;-64
2022/03/30 06:31:22;;;;;;;5.78;3.03;;;20.20;41.00;;;;;;5003437;28;20139;-68
2022/03/30 06:33:49;;;;;;;3.95;3.00;;;20.20;41.00;;;;;;5007693;28;20041;-65
2022/03/30 06:36:15;;;;;;;3.88;3.22;;;20.20;41.00;;;;;;5000484;28;20057;-66
2022/03/30 06:38:44;;;;;;;4.88;3.00;;;20.20;41.00;;;;;;5004038;28;20058;-64
2022/03/30 06:41:12;;;;;;;4.22;2.92;;;20.20;41.10;;;;;;4987224;28;20133;-64
2022/03/30 06:43:42;;;;;;;4.68;3.03;;;20.20;41.20;;;;;;5005150;28;21531;-66
2022/03/30 06:46:09;;;;;;;4.00;2.65;;;20.20;41.30;;;;;;4989779;28;20045;-65
2022/03/30 06:48:34;;;;;;;4.97;2.92;;;20.20;41.40;;;;;;4988687;28;20045;-66
2022/03/30 06:51:00;;;;;;;4.38;2.60;;;20.20;41.50;;;;;;5008075;28;20037;-65
2022/03/30 06:53:26;;;;;;;4.28;2.53;;;20.20;41.50;;;;;;5007218;28;20045;-66
2022/03/30 06:55:52;;;;;;;3.53;2.50;;;20.20;41.50;;;;;;4988805;28;20073;-65
2022/03/30 06:58:17;;;;;;;3.22;2.50;;;20.20;41.60;;;;;;4997632;28;20051;-66
2022/03/30 07:00:43;;;;;;;2.97;1.90;;;20.30;41.60;;;;;;4990165;28;20056;-65
2022/03/30 07:03:09;;;;;;;3.20;2.30;;;20.30;41.60;;;;;;4973858;28;20100;-65
2022/03/30 07:05:35;;;;;;;3.47;2.30;;;20.30;41.70;;;;;;5007906;28;20041;-66
2022/03/30 07:10:45;;;;;;;2.65;1.92;;;20.30;41.70;;;;;;4989621;28;20056;-66
2022/03/30 07:13:11;;;;;;;2.15;1.95;;;20.30;41.70;;;;;;4988944;28;20038;-66
2022/03/30 07:15:38;;;;;;;2.33;2.13;;;20.30;41.70;;;;;;4989141;28;20136;-65
2022/03/30 07:18:06;;;;;;;2.80;1.90;;;20.30;41.70;;;;;;4988559;28;20046;-66
2022/03/30 07:20:32;;;;;;;2.53;1.88;;;20.30;41.70;;;;;;5006798;28;20041;-65
2022/03/30 07:22:58;;;;;;;2.30;1.55;;;20.40;41.80;;;;;;4989134;28;20048;-65
2022/03/30 07:25:24;;;;;;;2.72;1.95;;;20.40;41.80;;;;;;5005817;28;20033;-65
2022/03/30 07:27:53;;;;;;;1.80;1.52;;;20.40;41.70;;;;;;4988264;28;20045;-66
2022/03/30 07:30:20;;;;;;;2.40;1.65;;;20.40;41.70;;;;;;4986015;28;20033;-64
2022/03/30 07:32:48;;;;;;;2.85;1.58;;;20.40;41.60;;;;;;5004625;28;20470;-67
2022/03/30 07:35:17;;;;;;;2.90;1.75;;;20.40;42.40;;;;;;5005966;28;20049;-64
2022/03/30 07:37:46;;;;;;;2.28;1.48;;;20.40;41.70;;;;;;4973558;28;20512;-66
2022/03/30 07:40:21;;;;;;;2.22;1.73;;;20.40;41.60;;;;;;4983818;28;20060;-67
2022/03/30 07:42:57;;;;;;;2.40;1.27;;;20.40;41.60;;;;;;4968068;28;20042;-65
2022/03/30 07:45:24;;;;;;;2.00;1.40;;;20.40;41.50;;;;;;4983919;28;20045;-65
2022/03/30 07:47:51;;;;;;;2.10;1.38;;;20.40;41.50;;;;;;5001630;28;20038;-64
2022/03/30 07:50:17;;;;;;;1.52;1.25;;;20.40;41.60;;;;;;4999188;28;20132;-63
2022/03/30 07:52:43;;;;;;;1.58;1.30;;;20.50;41.60;;;;;;5001406;28;20033;-66
2022/03/30 07:55:11;;;;;;;2.60;1.52;;;20.50;41.60;;;;;;5001744;28;20038;-64
2022/03/30 07:57:37;;;;;;;1.70;1.30;;;20.50;41.60;;;;;;4991411;28;20033;-65
2022/03/30 08:00:06;;;;;;;2.58;1.35;;;20.50;41.80;;;;;;5001172;28;20042;-66
2022/03/30 08:02:32;;;;;;;2.03;1.00;;;20.50;42.50;;;;;;5004294;28;20037;-64
2022/03/30 08:04:58;;;;;;;1.63;1.20;;;20.50;41.80;;;;;;4986829;28;20562;-65
2022/03/30 08:07:26;;;;;;;1.30;1.00;;;20.50;41.80;;;;;;4987682;28;20490;-66
2022/03/30 08:09:53;;;;;;;2.75;0.98;;;20.50;41.90;;;;;;4987039;28;20048;-66
2022/03/30 08:12:20;;;;;;;3.65;0.95;;;20.50;41.90;;;;;;5005482;28;20847;-66
2022/03/30 08:14:46;;;;;;;1.38;0.90;;;20.50;41.90;;;;;;5007382;28;20116;-65
2022/03/30 08:17:12;;;;;;;1.95;1.30;;;20.50;41.90;;;;;;4989954;28;20402;-65
2022/03/30 08:19:38;;;;;;;1.30;1.00;;;20.50;42.00;;;;;;5007327;28;20057;-64
2022/03/30 08:24:49;;;;;;;1.65;1.20;;;20.60;42.10;;;;;;4989350;28;20045;-67
2022/03/30 08:27:16;;;;;;;1.50;0.93;;;20.60;42.20;;;;;;4988262;28;20038;-67
2022/03/30 08:29:44;;;;;;;1.90;1.10;;;20.60;42.50;;;;;;5007610;28;20103;-64
2022/03/30 08:32:11;;;;;;;1.25;1.00;;;20.60;42.50;;;;;;5005243;28;20085;-64
2022/03/30 08:34:38;;;;;;;2.40;0.90;;;20.60;42.40;;;;;;4987833;28;20038;-64
2022/03/30 08:37:03;;;;;;;1.13;0.90;;;20.60;42.50;;;;;;4999439;28;20072;-64
2022/03/30 08:39:29;;;;;;;1.08;0.98;;;20.70;42.50;;;;;;4981565;28;20463;-65
2022/03/30 08:41:56;;;;;;;2.25;0.85;;;20.70;42.50;;;;;;5001314;28;20590;-65
2022/03/30 08:44:21;;;;;;;1.00;0.90;;;20.70;42.50;;;;;;4983817;28;20045;-65
2022/03/30 08:46:47;;;;;;;3.17;0.88;;;20.70;42.60;;;;;;5000582;28;20405;-64
2022/03/30 08:49:15;;;;;;;1.52;0.98;;;20.70;42.60;;;;;;4981418;28;20042;-65
2022/03/30 08:51:42;;;;;;;1.85;0.60;;;20.70;42.80;;;;;;4980146;28;20124;-65
2022/03/30 08:54:12;;;;;;;1.33;0.73;;;20.70;42.70;;;;;;5001783;28;20053;-65
2022/03/30 08:56:39;;;;;;;1.33;0.80;;;20.70;42.70;;;;;;5000771;28;20052;-66
2022/03/30 08:59:09;;;;;;;1.65;1.00;;;20.70;42.70;;;;;;4983657;28;20049;-65
2022/03/30 09:01:37;;;;;;;0.98;0.88;;;20.70;42.80;;;;;;5000396;28;20401;-66
2022/03/30 09:04:05;;;;;;;1.25;0.85;;;20.70;42.80;;;;;;5003130;28;20038;-62
2022/03/30 09:06:36;;;;;;;1.15;0.90;;;20.70;42.90;;;;;;4998485;28;20049;-65
2022/03/30 09:09:02;;;;;;;;;;;20.70;42.90;;;;;;5002026;28;20049;-65
2022/03/30 09:11:30;;;;;;;1.15;0.90;;;20.70;42.80;;;;;;4981875;28;19929;-61
2022/03/30 09:14:05;;;;;;;1.02;0.90;;;20.70;42.80;;;;;;5001460;28;20041;-64
2022/03/30 09:16:46;;;;;;;1.95;0.90;;;20.70;42.70;;;;;;5000036;28;20042;-64
2022/03/30 09:19:14;;;;;;;1.30;0.90;;;20.80;42.70;;;;;;5000609;28;20042;-67
2022/03/30 09:21:47;;;;;;;3.28;1.33;;;20.80;42.60;;;;;;4965611;28;20077;-65
2022/03/30 09:24:15;;;;;;;1.70;0.95;;;20.70;42.50;;;;;;5001313;28;20149;-65
2022/03/30 09:26:42;;;;;;;1.70;0.90;;;20.80;42.70;;;;;;4983359;28;20046;-65
2022/03/30 09:29:09;;;;;;;2.65;1.00;;;20.80;42.70;;;;;;4982586;28;20050;-65
2022/03/30 09:31:36;;;;;;;2.17;1.25;;;20.80;42.70;;;;;;4997648;28;20050;-64
2022/03/30 09:34:07;;;;;;;2.95;1.13;;;20.80;42.80;;;;;;4999859;28;20121;-63
2022/03/30 09:36:40;;;;;;;2.35;1.02;;;20.80;42.80;;;;;;4982745;28;20037;-61
2022/03/30 09:39:09;;;;;;;2.20;1.00;;;20.80;42.80;;;;;;5000435;28;20058;-62
2022/03/30 09:41:49;;;;;;;3.25;1.10;;;20.80;42.80;;;;;;4976205;28;20103;-68
2022/03/30 09:44:17;;;;;;;2.63;1.10;;;20.80;42.70;;;;;;4982306;28;20482;-63
2022/03/30 09:46:53;;;;;;;1.70;0.80;;;20.80;42.70;;;;;;5000935;28;20137;-65
2022/03/30 09:49:39;;;;;;;1.15;1.05;;;20.80;42.70;;;;;;5004203;28;20104;-63
2022/03/30 09:52:18;;;;;;;3.70;1.10;;;20.80;42.60;;;;;;5003910;28;20128;-66
2022/03/30 09:54:53;;;;;;;2.00;1.00;;;20.80;42.60;;;;;;5004289;28;20091;-65
2022/03/30 09:57:35;;;;;;;1.73;1.08;;;20.80;42.60;;;;;;4984254;28;20235;-61
2022/03/30 10:00:07;;;;;;;4.95;1.10;;;20.80;42.60;;;;;;5004962;28;20044;-64
2022/03/30 10:02:38;;;;;;;2.15;1.02;;;20.80;42.60;;;;;;5004106;28;20069;-66
2022/03/30 10:05:05;;;;;;;4.05;1.00;;;20.80;42.50;;;;;;5005428;28;20045;-65
2022/03/30 10:07:31;;;;;;;1.90;1.00;;;20.90;42.50;;;;;;5004562;28;20038;-66
2022/03/30 10:09:59;;;;;;;1.23;1.13;;;20.80;42.30;;;;;;4983826;28;20064;-63
2022/03/30 10:12:26;;;;;;;1.55;0.80;;;20.90;42.40;;;;;;5003741;28;20034;-64
2022/03/30 10:14:53;;;;;;;2.33;1.10;;;20.90;42.30;;;;;;5004002;28;20046;-62
2022/03/30 10:17:19;;;;;;;1.98;1.10;;;20.90;42.30;;;;;;4984824;28;20057;-63
2022/03/30 10:19:46;;;;;;;2.55;1.05;;;20.90;42.20;;;;;;5003352;28;20093;-65
2022/03/30 10:22:19;;;;;;;1.58;1.10;;;20.90;42.20;;;;;;4985746;28;20060;-67
2022/03/30 10:25:06;;;;;;;1.80;1.02;;;20.90;42.20;;;;;;4984151;28;20045;-66
2022/03/30 10:27:57;;;;;;;2.17;1.40;;;20.90;42.50;;;;;;5003250;28;20065;-63
2022/03/30 10:30:31;;;;;;;2.83;1.10;;;20.90;42.10;;;;;;5001312;28;20057;-65
2022/03/30 10:32:59;;;;;;;3.20;1.15;;;20.90;42.20;;;;;;4998913;28;20045;-64
2022/03/30 10:35:42;;;;;;;2.30;1.20;;;20.90;42.30;;;;;;5002507;28;20406;-62
2022/03/30 10:38:08;;;;;;;1.67;1.10;;;20.90;42.30;;;;;;5003415;28;20382;-65
2022/03/30 10:40:35;;;;;;;3.72;1.30;;;20.90;42.30;;;;;;4991077;28;20046;-63
2022/03/30 10:43:09;;;;;;;1.20;1.10;;;20.90;42.40;;;;;;4991240;28;20034;-62
2022/03/30 10:46:00;;;;;;;1.85;1.20;;;20.90;42.30;;;;;;4990321;28;20402;-64
2022/03/30 10:48:28;;;;;;;3.40;1.40;;;20.90;42.30;;;;;;4992363;28;20077;-63
2022/03/30 10:51:16;;;;;;;3.75;1.23;;;20.90;42.30;;;;;;4988790;28;20059;-63
2022/03/30 10:53:51;;;;;;;3.20;1.30;;;20.90;42.20;;;;;;4990382;28;20135;-65
2022/03/30 10:56:18;;;;;;;3.45;1.40;;;20.90;42.30;;;;;;4991175;28;20053;-62
2022/03/30 10:58:49;;;;;;;2.22;1.10;;;20.90;42.30;;;;;;4989896;28;20080;-63
2022/03/30 11:01:32;;;;;;;2.55;1.23;;;20.90;42.40;;;;;;4990939;28;20038;-63
2022/03/30 11:04:18;;;;;;;2.90;1.00;;;20.90;42.40;;;;;;4988457;28;20138;-64
2022/03/30 11:06:47;;;;;;;2.10;1.25;;;20.90;42.40;;;;;;4987643;28;20061;-64
2022/03/30 11:09:19;;;;;;;3.65;1.05;;;20.90;42.30;;;;;;4967593;28;20552;-64
2022/03/30 11:11:56;;;;;;;3.75;1.30;;;20.90;42.20;;;;;;4990307;28;20528;-65
2022/03/30 11:14:27;;;;;;;2.40;1.20;;;20.90;42.30;;;;;;4970117;28;20088;-65
2022/03/30 11:17:03;;;;;;;1.88;1.10;;;20.90;42.20;;;;;;4971200;28;20042;-63
2022/03/30 11:19:46;;;;;;;1.52;0.90;;;20.90;42.20;;;;;;4990097;28;20144;-64
2022/03/30 11:22:13;;;;;;;2.28;1.00;;;21.00;42.30;;;;;;4992006;28;20046;-66
2022/03/30 11:24:43;;;;;;;2.50;1.00;;;20.90;42.20;;;;;;4991204;28;20148;-65
2022/03/30 11:27:08;;;;;;;3.25;1.02;;;20.90;42.20;;;;;;4990446;28;20043;-63
2022/03/30 11:29:48;;;;;;;1.98;0.90;;;20.90;42.20;;;;;;4989576;28;20053;-63
2022/03/30 11:32:29;;;;;;;2.45;1.00;;;21.00;42.20;;;;;;4971640;28;20054;-64
2022/03/30 11:34:59;;;;;;;2.25;0.88;;;21.00;42.20;;;;;;4974770;28;20108;-63
2022/03/30 11:37:32;;;;;;;2.80;0.80;;;20.90;42.20;;;;;;4975913;28;20074;-63
2022/03/30 11:40:12;;;;;;;1.15;0.82;;;20.90;42.30;;;;;;5007710;28;20204;-63
2022/03/30 11:42:40;;;;;;;3.28;0.90;;;21.00;42.10;;;;;;5002348;28;20065;-66
2022/03/30 11:45:14;;;;;;;1.67;0.93;;;21.00;42.10;;;;;;5015973;28;20048;-65
2022/03/30 11:47:45;;;;;;;1.40;0.93;;;20.90;42.10;;;;;;4997422;28;20038;-67
2022/03/30 11:50:12;;;;;;;2.03;1.00;;;20.90;42.00;;;;;;5001228;28;20073;-65
2022/03/30 11:52:39;;;;;;;2.65;0.80;;;20.90;42.00;;;;;;5016948;28;20056;-62
2022/03/30 11:55:07;;;;;;;2.58;0.82;;;20.90;42.00;;;;;;5001410;28;20037;-61
2022/03/30 11:57:38;;;;;;;2.40;0.95;;;21.00;42.00;;;;;;5003592;28;20046;-64
2022/03/30 12:00:09;;;;;;;1.55;0.70;;;21.00;42.00;;;;;;4997468;28;20042;-64
2022/03/30 12:02:36;;;;;;;4.00;1.08;;;21.00;42.00;;;;;;5002020;28;20048;-64
2022/03/30 12:05:03;;;;;;;3.38;0.82;;;21.00;42.10;;;;;;5000390;28;20026;-63
2022/03/30 12:07:34;;;;;;;3.28;1.00;;;21.00;42.10;;;;;;5000066;28;20140;-64
2022/03/30 12:10:00;;;;;;;3.80;1.30;;;21.00;42.10;;;;;;4996185;28;20705;-64
2022/03/30 12:12:35;;;;;;;2.50;0.95;;;21.00;42.20;;;;;;5003694;28;20050;-64
2022/03/30 12:15:12;;;;;;;1.85;1.00;;;21.00;42.20;;;;;;5003026;28;20092;-63
2022/03/30 12:17:39;;;;;;;1.90;0.80;;;21.00;42.20;;;;;;5016651;28;20046;-63
2022/03/30 12:20:08;;;;;;;5.30;1.27;;;21.00;42.30;;;;;;5003085;28;20620;-64
2022/03/30 12:22:35;;;;;;;2.67;1.08;;;21.00;42.30;;;;;;5000836;28;20448;-64
2022/03/30 12:25:01;;;;;;;1.92;0.88;;;21.00;42.30;;;;;;5000359;28;20065;-65
2022/03/30 12:27:27;;;;;;;2.08;0.80;;;21.00;42.30;;;;;;4999441;28;20081;-64
2022/03/30 12:29:56;;;;;;;1.73;0.63;;;21.00;42.10;;;;;;5017325;28;20428;-66
2022/03/30 12:32:26;;;;;;;2.33;0.82;;;21.00;42.00;;;;;;5001848;28;20069;-65
2022/03/30 12:35:18;;;;;;;2.05;0.80;;;20.90;41.90;;;;;;5002848;28;20130;-64
2022/03/30 12:37:46;;;;;;;1.25;0.80;;;21.00;41.80;;;;;;4990745;28;20050;-67
2022/03/30 12:40:17;;;;;;;2.22;0.73;;;20.90;41.80;;;;;;5000791;28;20592;-64
2022/03/30 12:42:44;;;;;;;1.90;0.70;;;20.90;41.80;;;;;;5001330;28;20144;-64
2022/03/30 12:45:15;;;;;;;3.53;0.80;;;20.90;41.70;;;;;;5008715;28;20563;-64
2022/03/30 12:47:59;;;;;;;0.95;0.80;;;20.90;41.70;;;;;;4999967;28;20092;-63
2022/03/30 12:50:32;;;;;;;3.55;0.88;;;20.90;41.60;;;;;;5003542;28;20050;-63
2022/03/30 12:53:06;;;;;;;2.15;0.90;;;20.90;41.50;;;;;;4999937;28;20829;-65
2022/03/30 12:55:36;;;;;;;1.95;0.82;;;20.90;41.50;;;;;;5016719;28;20405;-66
2022/03/30 12:58:10;;;;;;;2.30;0.70;;;20.90;41.40;;;;;;5001123;28;20052;-63
2022/03/30 13:00:55;;;;;;;1.90;0.50;;;20.90;41.40;;;;;;4991483;28;20048;-65